X  Zatvori METAR Podaci o vazduhoplovstvu     LYNI Nis Airport
Temperatura
5°C Temperatura
3°C Tačka Rose
87% Vlaga



Vetar
1 M/S
3 MPH
5 KM/H
3 KTS



120°
IJI
Trenutna situacija

Vedro Vedro
Vazdušni pritisak 1019.92 (hPa) - 30.12 (inHg)
Vidljivost 6.2 (Milja) - 10 (km)
Aerodrom
Aerodromski kod. LYNI

Lokacija: Nis Airport
Udaljenost: 63 (km)

Metar:
LYNI 240500Z 12003KT CAVOK 05/03 Q1020 NOSIG

Vreme: 24-09-2021 07:00 CEST